Time;durP1;ratioP1;P1;durP2;ratioP2;P2;SDS_P1;SDS_P2;PMS_P1;PMS_P2;Temp;Humidity;BMP_temperature;BMP_pressure;BME280_temperature;BME280_humidity;BME280_pressure;Samples;Min_cycle;Max_cycle;Signal;HPM_P1;HPM_P2
2023/01/25 00:09:45;;;;;;;1.52;1.42;;;;;;;2.72;64.69;102128.56;18487080;32;20081;-59
2023/01/25 00:19:48;;;;;;;0.90;0.88;;;;;;;2.62;65.04;102128.00;18495896;32;20100;-60
2023/01/25 00:29:52;;;;;;;10.52;5.10;;;;;;;2.64;64.30;102129.00;18373640;32;20112;-59
2023/01/25 00:39:55;;;;;;;0.80;0.80;;;;;;;2.68;64.45;102124.03;18428896;32;20390;-60
2023/01/25 00:50:00;;;;;;;0.70;0.70;;;;;;;2.62;64.45;102132.31;18473675;32;20502;-59
2023/01/25 01:00:04;;;;;;;2.58;1.45;;;;;;;2.72;64.00;102136.28;18489048;32;20115;-60
2023/01/25 01:10:10;;;;;;;0.77;0.77;;;;;;;2.40;64.12;102161.06;18488288;32;20514;-60
2023/01/25 01:20:16;;;;;;;1.45;1.35;;;;;;;2.29;65.02;102151.03;18481897;32;20092;-60
2023/01/25 01:30:21;;;;;;;0.70;0.70;;;;;;;2.30;64.09;102144.16;18476007;32;20138;-60
2023/01/25 01:40:25;;;;;;;8.23;7.10;;;;;;;2.25;64.52;102140.44;18473747;32;20105;-60
2023/01/25 01:50:29;;;;;;;0.60;0.60;;;;;;;2.23;65.01;102137.75;18480450;32;20107;-60
2023/01/25 02:00:35;;;;;;;0.70;0.70;;;;;;;2.30;65.65;102133.84;18496272;32;20108;-60
2023/01/25 02:10:40;;;;;;;0.60;0.60;;;;;;;2.38;65.75;102144.63;18496065;32;20088;-60
2023/01/25 02:20:44;;;;;;;3.22;2.95;;;;;;;2.27;66.91;102141.41;18496171;32;20115;-59
2023/01/25 02:30:49;;;;;;;3.05;2.72;;;;;;;2.51;67.12;102134.25;18495690;32;20506;-60
2023/01/25 02:40:55;;;;;;;1.05;1.05;;;;;;;2.49;67.79;102130.69;18495104;32;20096;-59
2023/01/25 02:50:59;;;;;;;0.75;0.75;;;;;;;2.24;68.69;102129.22;18494943;32;20093;-61
2023/01/25 03:01:02;;;;;;;1.02;0.98;;;;;;;2.60;67.74;102115.81;18494130;32;20149;-60
2023/01/25 03:11:07;;;;;;;0.70;0.70;;;;;;;2.45;67.48;102116.72;18493998;32;20104;-60
2023/01/25 03:21:12;;;;;;;1.02;1.02;;;;;;;2.34;67.70;102108.34;18494223;32;20157;-61
2023/01/25 03:31:17;;;;;;;0.50;0.50;;;;;;;2.29;67.48;102120.09;18493782;32;20119;-60
2023/01/25 03:41:20;;;;;;;0.70;0.70;;;;;;;2.29;67.33;102114.94;18493675;32;20093;-60
2023/01/25 03:51:25;;;;;;;0.70;0.70;;;;;;;1.69;68.29;102125.06;18493256;32;20109;-61
2023/01/25 04:01:28;;;;;;;0.50;0.50;;;;;;;1.99;67.32;102106.25;18492945;32;20092;-60
2023/01/25 04:11:32;;;;;;;0.70;0.70;;;;;;;2.11;67.12;102106.09;18493042;32;20093;-60
2023/01/25 04:21:35;;;;;;;0.75;0.75;;;;;;;2.20;66.90;102119.53;18492169;32;20158;-59
2023/01/25 04:31:40;;;;;;;0.50;0.50;;;;;;;1.95;67.36;102105.16;18492165;32;20371;-60
2023/01/25 04:41:43;;;;;;;0.60;0.60;;;;;;;2.10;67.11;102106.91;18491914;32;20686;-60
2023/01/25 04:51:48;;;;;;;0.60;0.60;;;;;;;1.90;67.43;102093.72;18491322;32;20476;-60
2023/01/25 05:01:51;;;;;;;0.52;0.52;;;;;;;1.92;67.15;102094.69;18491151;32;20453;-60
2023/01/25 05:11:56;;;;;;;1.33;1.33;;;;;;;1.93;67.08;102089.62;18490195;32;20096;-60
2023/01/25 05:21:59;;;;;;;0.80;0.80;;;;;;;2.06;66.70;102096.41;18490137;32;20170;-59
2023/01/25 05:32:04;;;;;;;2.25;2.15;;;;;;;1.93;67.47;102111.91;18489112;32;20096;-60
2023/01/25 05:42:11;;;;;;;1.73;1.65;;;;;;;1.86;67.31;102114.91;18490137;32;20103;-59
2023/01/25 05:52:16;;;;;;;0.70;0.70;;;;;;;1.74;66.89;102110.78;18489284;32;20089;-59
2023/01/25 06:02:19;;;;;;;1.20;1.20;;;;;;;1.83;66.32;102122.47;18436401;32;20113;-59
2023/01/25 06:12:24;;;;;;;0.70;0.70;;;;;;;1.79;66.37;102123.97;18435207;32;20108;-59
2023/01/25 06:22:27;;;;;;;0.50;0.50;;;;;;;1.81;66.18;102122.34;18435415;32;20111;-60
2023/01/25 06:32:33;;;;;;;0.60;0.60;;;;;;;1.68;66.30;102125.84;18434350;32;20403;-59
2023/01/25 06:42:37;;;;;;;0.98;0.98;;;;;;;1.60;66.42;102133.12;18432130;32;20104;-59
2023/01/25 06:52:41;;;;;;;0.60;0.60;;;;;;;1.30;67.26;102144.94;18433921;32;20092;-59
2023/01/25 07:02:44;;;;;;;0.65;0.65;;;;;;;1.16;67.55;102155.22;18487520;32;20084;-59
2023/01/25 07:12:49;;;;;;;1.27;1.27;;;;;;;1.38;67.39;102156.59;18493615;32;20136;-59
2023/01/25 07:22:52;;;;;;;1.62;1.60;;;;;;;1.52;67.42;102142.94;18498176;32;20095;-59
2023/01/25 07:32:59;;;;;;;0.50;0.50;;;;;;;1.74;67.16;102139.13;18498315;32;20108;-59
2023/01/25 07:43:03;;;;;;;0.90;0.90;;;;;;;1.85;66.78;102144.94;18492489;32;20092;-59
2023/01/25 07:53:07;;;;;;;0.80;0.80;;;;;;;1.79;66.85;102144.56;18494755;32;20132;-60
2023/01/25 08:03:12;;;;;;;0.85;0.85;;;;;;;1.34;67.49;102134.06;18359367;32;20180;-57
2023/01/25 08:13:17;;;;;;;0.70;0.70;;;;;;;1.63;67.67;102132.41;18302324;32;20140;-57
2023/01/25 08:23:21;;;;;;;0.70;0.70;;;;;;;2.15;66.91;102126.09;18302684;32;20176;-59
2023/01/25 08:33:25;;;;;;;0.88;0.88;;;;;;;2.31;66.77;102131.37;18303072;32;20101;-59
2023/01/25 08:43:28;;;;;;;0.62;0.62;;;;;;;2.35;66.99;102130.75;18302325;32;20137;-60
2023/01/25 08:53:33;;;;;;;1.00;1.00;;;;;;;2.28;68.31;102131.19;18303128;32;20101;-59
2023/01/25 09:03:37;;;;;;;1.50;1.45;;;;;;;2.61;67.36;102117.63;18302004;32;20129;-59
2023/01/25 09:13:42;;;;;;;0.60;0.60;;;;;;;2.57;68.21;102116.56;18301725;32;20090;-58
2023/01/25 09:23:49;;;;;;;0.70;0.70;;;;;;;2.67;68.29;102104.22;18341505;32;20120;-57
2023/01/25 09:34:08;;;;;;;6.03;1.08;;;;;;;2.29;69.71;102106.31;18363976;32;20093;-57
2023/01/25 09:44:23;;;;;;;0.60;0.60;;;;;;;3.37;67.10;102111.53;18350421;32;20112;-58
2023/01/25 09:54:29;;;;;;;0.73;0.73;;;;;;;3.51;67.96;102093.31;18299043;32;20097;-58
2023/01/25 10:04:41;;;;;;;3.90;3.62;;;;;;;3.99;67.48;102085.53;18298537;32;20097;-58
2023/01/25 10:14:45;;;;;;;0.95;0.95;;;;;;;4.03;67.80;102065.09;18301504;32;20391;-58
2023/01/25 10:25:26;;;;;;;2.83;2.60;;;;;;;4.41;67.03;102047.19;18307856;32;20092;-58
2023/01/25 10:35:35;;;;;;;0.70;0.70;;;;;;;4.61;66.69;102048.94;18307639;32;20362;-58
2023/01/25 10:45:43;;;;;;;1.58;1.48;;;;;;;4.52;66.70;102028.72;18307159;32;20100;-58
2023/01/25 10:56:10;;;;;;;1.37;1.30;;;;;;;4.75;66.58;102019.47;18305140;32;20386;-58
2023/01/25 11:06:13;;;;;;;1.55;1.45;;;;;;;4.81;67.39;102008.53;18232706;32;20497;-58
2023/01/25 11:16:25;;;;;;;0.90;0.90;;;;;;;5.00;67.53;101980.09;18267899;32;20113;-58
2023/01/25 11:26:30;;;;;;;0.70;0.70;;;;;;;5.49;66.91;101961.50;18304185;32;20112;-58
2023/01/25 11:36:40;;;;;;;1.10;1.10;;;;;;;5.79;66.22;101945.53;18297498;32;206763;-58
2023/01/25 11:46:53;;;;;;;3.53;2.97;;;;;;;6.06;66.25;101927.69;18304274;32;20375;-58
2023/01/25 11:57:00;;;;;;;1.15;1.05;;;;;;;6.35;65.41;101895.94;18247282;32;20086;-58
2023/01/25 12:07:05;;;;;;;3.22;1.58;;;;;;;6.39;65.01;101871.91;18304548;32;20103;-59
2023/01/25 12:17:23;;;;;;;1.27;1.27;;;;;;;6.42;64.14;101861.66;18305094;32;20121;-59
2023/01/25 12:27:42;;;;;;;0.70;0.70;;;;;;;6.58;62.81;101854.47;18303781;32;20104;-59
2023/01/25 12:37:48;;;;;;;0.62;0.62;;;;;;;6.71;62.16;101833.31;18302032;32;20365;-58
2023/01/25 12:47:55;;;;;;;2.10;1.98;;;;;;;6.80;61.63;101825.00;18302456;32;20470;-59
2023/01/25 12:58:04;;;;;;;2.72;1.10;;;;;;;7.03;61.41;101823.22;18301236;32;20102;-59
2023/01/25 13:08:18;;;;;;;0.80;0.80;;;;;;;6.94;61.30;101800.41;18301984;32;20373;-59
2023/01/25 13:18:38;;;;;;;0.50;0.50;;;;;;;7.06;60.74;101788.69;18297279;32;20094;-59
2023/01/25 13:28:44;;;;;;;1.40;1.08;;;;;;;7.17;60.41;101781.25;18299326;32;20143;-58
2023/01/25 13:38:48;;;;;;;1.12;1.12;;;;;;;7.19;60.45;101779.59;18298159;32;20123;-58
2023/01/25 13:49:02;;;;;;;1.33;1.23;;;;;;;7.39;59.91;101776.78;18302244;32;20442;-58
2023/01/25 13:59:07;;;;;;;1.05;1.05;;;;;;;7.43;59.41;101770.88;18304716;32;20120;-58
2023/01/25 14:09:13;;;;;;;1.27;1.10;;;;;;;7.43;59.25;101757.88;18304263;32;20112;-59
2023/01/25 14:19:25;;;;;;;0.62;0.62;;;;;;;7.22;59.67;101756.34;18301407;32;20137;-58
2023/01/25 14:29:28;;;;;;;2.28;1.23;;;;;;;7.29;59.30;101754.81;18289220;32;20363;-59
2023/01/25 14:39:37;;;;;;;1.17;1.10;;;;;;;7.17;59.27;101761.38;18285581;32;20103;-58
2023/01/25 14:49:40;;;;;;;0.70;0.70;;;;;;;7.28;59.07;101751.34;18301127;32;20108;-58
2023/01/25 14:59:46;;;;;;;0.70;0.70;;;;;;;7.17;59.37;101744.91;18296350;32;20228;-58
2023/01/25 15:10:02;;;;;;;1.90;1.80;;;;;;;6.22;60.50;101747.66;18298724;32;20089;-58
2023/01/25 15:20:38;;;;;;;1.02;1.02;;;;;;;6.88;60.51;101726.62;18310978;32;20359;-58
2023/01/25 15:30:43;;;;;;;0.60;0.60;;;;;;;6.95;59.83;101731.22;18305081;32;20374;-58
2023/01/25 15:40:46;;;;;;;1.35;1.00;;;;;;;6.87;60.03;101724.87;18304319;32;20168;-58
2023/01/25 15:50:53;;;;;;;1.65;1.55;;;;;;;6.74;60.16;101724.44;18303812;32;20152;-59
2023/01/25 16:00:56;;;;;;;0.82;0.82;;;;;;;6.61;60.72;101722.22;18301393;32;20098;-58
2023/01/25 16:11:01;;;;;;;1.92;1.40;;;;;;;6.63;61.11;101720.56;18296673;32;20399;-60
2023/01/25 16:21:04;;;;;;;8.07;3.47;;;;;;;6.57;61.36;101715.19;18278585;32;20116;-58
2023/01/25 16:31:12;;;;;;;3.05;2.87;;;;;;;6.53;61.39;101709.00;18289843;32;20124;-58
2023/01/25 16:41:33;;;;;;;4.65;2.35;;;;;;;6.29;62.28;101703.81;18294562;32;20089;-58
2023/01/25 16:51:39;;;;;;;2.25;2.15;;;;;;;6.43;61.99;101706.91;18301749;32;20121;-58
2023/01/25 17:01:42;;;;;;;2.97;2.75;;;;;;;6.16;63.13;101703.34;18302438;32;20086;-59
2023/01/25 17:11:47;;;;;;;1.50;1.40;;;;;;;6.22;63.01;101690.63;18299173;32;20365;-58
2023/01/25 17:21:50;;;;;;;2.50;0.93;;;;;;;6.27;62.76;101679.53;18299531;32;20439;-58
2023/01/25 17:31:55;;;;;;;0.80;0.80;;;;;;;6.10;63.21;101677.22;18297627;32;20089;-58
2023/01/25 17:41:59;;;;;;;0.77;0.77;;;;;;;6.13;62.86;101669.53;18292715;32;20164;-59
2023/01/25 17:52:04;;;;;;;1.45;1.35;;;;;;;6.07;62.85;101661.53;18293368;32;20109;-58
2023/01/25 18:02:08;;;;;;;2.30;2.12;;;;;;;6.05;63.41;101650.22;18297287;32;20127;-58
2023/01/25 18:12:15;;;;;;;0.60;0.60;;;;;;;6.06;63.36;101639.00;18291963;32;20111;-58
2023/01/25 18:22:22;;;;;;;1.95;1.85;;;;;;;6.00;63.83;101650.00;18296380;32;20098;-58
2023/01/25 18:32:27;;;;;;;1.27;1.17;;;;;;;6.05;63.97;101642.44;18292753;32;20121;-58
2023/01/25 18:42:30;;;;;;;0.75;0.75;;;;;;;6.01;63.76;101627.59;18301019;32;20094;-59
2023/01/25 18:52:36;;;;;;;1.25;1.17;;;;;;;6.04;63.83;101614.75;18292719;32;20362;-59
2023/01/25 19:02:39;;;;;;;1.87;1.73;;;;;;;6.05;63.83;101600.97;18287728;32;20156;-58
2023/01/25 19:12:43;;;;;;;2.50;2.30;;;;;;;5.99;64.21;101598.12;18288773;32;20414;-58
2023/01/25 19:22:47;;;;;;;2.75;2.58;;;;;;;6.05;63.88;101586.31;18294523;32;20094;-58
2023/01/25 19:32:53;;;;;;;9.50;5.85;;;;;;;6.04;63.97;101568.09;18299902;32;20101;-58
2023/01/25 19:42:56;;;;;;;1.00;1.00;;;;;;;6.06;63.86;101561.25;18301184;32;20105;-59
2023/01/25 19:53:02;;;;;;;1.62;1.52;;;;;;;6.01;64.28;101562.78;18301687;32;20139;-58
2023/01/25 20:03:05;;;;;;;2.83;2.67;;;;;;;5.99;64.03;101559.25;18294278;32;20097;-58
2023/01/25 20:13:19;;;;;;;4.20;3.80;;;;;;;6.07;63.74;101542.25;18298032;32;20086;-58
2023/01/25 20:23:23;;;;;;;2.05;1.87;;;;;;;6.03;63.72;101545.59;18301467;32;20093;-59
2023/01/25 20:33:28;;;;;;;3.47;3.17;;;;;;;5.96;63.82;101532.37;18282083;32;20102;-58
2023/01/25 20:43:34;;;;;;;1.17;1.17;;;;;;;5.91;64.54;101528.75;18297820;32;20104;-58
2023/01/25 20:53:40;;;;;;;0.70;0.70;;;;;;;6.02;64.25;101513.59;18301065;32;20120;-58
2023/01/25 21:03:43;;;;;;;0.98;0.98;;;;;;;5.97;64.41;101500.47;18299729;32;20112;-58
2023/01/25 21:13:48;;;;;;;1.00;1.00;;;;;;;5.90;64.81;101497.59;18299637;32;20089;-58
2023/01/25 21:23:52;;;;;;;1.12;1.12;;;;;;;6.01;64.59;101483.28;18296568;32;20116;-58
2023/01/25 21:34:00;;;;;;;2.17;2.03;;;;;;;5.90;64.82;101482.94;18290756;32;20101;-58
2023/01/25 21:54:27;;;;;;;1.90;1.23;;;;;;;5.86;64.83;101462.91;18299114;32;20114;-59
2023/01/25 22:04:34;;;;;;;0.60;0.60;;;;;;;5.97;64.32;101460.69;18299491;32;20163;-58
2023/01/25 22:14:39;;;;;;;1.30;1.20;;;;;;;5.84;64.58;101446.44;18302174;32;20113;-59
2023/01/25 22:24:42;;;;;;;1.55;1.52;;;;;;;5.80;64.72;101431.62;18309427;32;20094;-58
2023/01/25 22:34:47;;;;;;;1.85;1.75;;;;;;;5.81;64.87;101428.19;18304577;32;20093;-59
2023/01/25 22:44:50;;;;;;;2.50;2.30;;;;;;;5.71;64.87;101411.44;18288810;32;20106;-58
2023/01/25 22:54:54;;;;;;;0.50;0.50;;;;;;;5.89;64.28;101405.12;18288435;32;20090;-59
2023/01/25 23:04:58;;;;;;;2.05;1.95;;;;;;;5.68;65.02;101399.25;18295062;32;20089;-58
2023/01/25 23:15:05;;;;;;;2.58;2.37;;;;;;;5.73;64.85;101393.37;18306666;32;20093;-58
2023/01/25 23:25:10;;;;;;;2.05;1.95;;;;;;;5.75;64.58;101379.66;18306123;32;20116;-58
2023/01/25 23:35:16;;;;;;;0.77;0.77;;;;;;;5.71;64.77;101363.94;18305693;32;20101;-58
2023/01/25 23:45:19;;;;;;;0.93;0.93;;;;;;;5.64;65.00;101352.47;18306399;32;20093;-59
2023/01/25 23:55:24;;;;;;;3.83;1.98;;;;;;;5.63;64.88;101348.13;18306193;32;20373;-58
